Poughquag, NY

6:40 PM EST on February 05, 2016 (GMT -0500)
Blueberry Mtn | | Change Station
CLOSE
Current Station
Personal Weather Station
Location: Wingdale, NY
Elevation: 1250 ft
Nearby Weather Stations

Elev 1250 ft 41.64 °N, 73.64 °W | Updated 4 seconds ago

Clear
Clear
29.3 °F
Feels Like 29 °F
N
0.0
Wind Variable Wind from NW
Gusts 0.0 mph

Today
High -- | Low -- °F
--% Chance of Precip.
Yesterday
High -- | Low -- °F
Precip. -- in
Pressure 30.20 in
Visibility 10.0 miles
Clouds Clear
Windchill 29 °F
Dew Point 8 °F
Humidity 40%
Rainfall 0.04 in
Snow Depth Not available.
7:02 AM 5:14 PM
Waning Crescent, 9% visible
METAR KPOU 052253Z AUTO 31009KT 10SM CLR 03/M13 A3020 RMK AO2 SLP225 T00331133
Pressure 30.20 in
Visibility 10.0 miles
Clouds Clear
Windchill 29 °F
Dew Point 8 °F
Humidity 40%
Rainfall 0.04 in
Snow Depth Not available.
7:02 AM 5:14 PM
Waning Crescent, 9% visible
METAR KPOU 052253Z AUTO 31009KT 10SM CLR 03/M13 A3020 RMK AO2 SLP225 T00331133

10-Day Weather Forecast

Almanac

Astronomy

Feb. 05, 2016 Rise Set
Actual Time
Civil Twilight
Nautical Twilight
Astronomical Twilight
Moon
Length of Visible Light
Length of Day
Tomorrow will be .
, % of the Moon is Illuminated

Today's Extremes

State Highs State Lows

Community

WunderPhotos

Upload Photos

1,890,881 photos uploaded!

WunderBlog® & News

Nearby

Air Quality

  Air Quality AQ Index Pollutant
Not available.

Snow Depth

Station Depth Elevation

Earthquake Activity

City Distance Mag. Time & Date
Minimum magnitude displayed is 2.5.

Coastal Water Temperatures

Place Temperature

Stations

Nearby Weather Stations

Station Location Temp. Windchill Dew Point Humidity Wind Precip. Elev Updated Type
                   

Watches & Warnings

There are currently no watches in effect.